Mary Alice — WCX9570 — position and weather

sailwx.info

Track history (hours):
 
Tides and Currents Weather Stations Pressure Air Temp Water Temp Dewpoint Dewpoint Depression Visibility Wind Speed Wind Dir Waves Ship Positions

Mary Alice

Owner: Donjon Marine Co., Inc., HILLSIDE, NJ. More information available from US FCC via Universal Licensing System and Coast Guard Vessel Documentation Center.

Last reported at 2016-Dec-11 05:33 UTC. Time now 2016-Dec-11 06:12 UTC.
Position N 40°42' W 074°09'.

Length 21 m; draft 4.8 m.

Type: Towing. MMSI: 366744020.

Date/timePositionNaut miles runAvg speedWind from/ knotsBaromVisibWave heightAir tempDewpointWater temp
2016-Dec-11 05:33N 40°42' W 074°09'0 0.0
2016-Dec-11 04:33N 40°42' W 074°09'0 0.0
2016-Dec-11 03:33N 40°42' W 074°09'0 0.0
2016-Dec-11 02:33N 40°42' W 074°09'0 0.0
2016-Dec-11 01:33N 40°42' W 074°09'0 0.0
2016-Dec-11 00:33N 40°42' W 074°09'1 0.9
2016-Dec-10 23:34N 40°41' W 074°08'0 0.0
2016-Dec-10 22:33N 40°41' W 074°08'0 0.0
2016-Dec-10 21:33N 40°41' W 074°08'0 0.0
2016-Dec-10 20:33N 40°41' W 074°08'0 0.0
2016-Dec-10 19:33N 40°41' W 074°08'0 0.0
2016-Dec-10 18:33N 40°41' W 074°08'0 0.0
2016-Dec-10 17:33N 40°41' W 074°08'0 0.0
2016-Dec-10 16:33N 40°41' W 074°08'0 0.0
2016-Dec-10 15:34N 40°41' W 074°08'0 0.0
2016-Dec-10 14:34N 40°41' W 074°08'1 0.8
2016-Dec-10 13:33N 40°42' W 074°09'0 0.0
2016-Dec-10 12:30N 40°42' W 074°09'0 0.0
2016-Dec-10 11:23N 40°42' W 074°09'0 0.0
2016-Dec-10 10:25N 40°42' W 074°09'0 0.0
2016-Dec-10 07:32N 40°42' W 074°09'0 0.0
2016-Dec-10 05:28N 40°42' W 074°09'0 0.0
2016-Dec-10 04:33N 40°42' W 074°09'0 0.0
2016-Dec-10 03:17N 40°42' W 074°09'1 1.4
2016-Dec-10 02:34N 40°41' W 074°08'3 2.6
2016-Dec-10 01:33N 40°39' W 074°07'3 3.1
2016-Dec-10 00:33N 40°41' W 074°05'3 3.1
2016-Dec-09 23:32N 40°39' W 074°07'3 2.6
2016-Dec-09 22:33N 40°41' W 074°08'0 0.5
2016-Dec-09 21:33N 40°41' W 074°08'0 0.4
2016-Dec-09 20:33N 40°41' W 074°08'0 0.3
2016-Dec-09 19:33N 40°41' W 074°09'0 0.0
2016-Dec-09 18:33N 40°41' W 074°09'0 0.0
2016-Dec-09 17:34N 40°41' W 074°09'0 0.0
2016-Dec-09 16:33N 40°41' W 074°09'1 0.8
2016-Dec-09 15:33N 40°42' W 074°08'0 0.1
2016-Dec-09 14:33N 40°41' W 074°08'0 0.0
2016-Dec-09 13:33N 40°41' W 074°08'0 0.0
2016-Dec-09 12:34N 40°41' W 074°08'0 0.0
2016-Dec-09 11:33N 40°41' W 074°08'0 0.0
2016-Dec-09 10:34N 40°41' W 074°08'1 0.9
2016-Dec-09 09:33N 40°42' W 074°09'0 0.0
2016-Dec-09 08:33N 40°42' W 074°09'0 0.0
2016-Dec-09 07:33N 40°42' W 074°09'0 0.0
2016-Dec-09 06:34N 40°42' W 074°09'0 0.0
2016-Dec-09 05:34N 40°42' W 074°09'0 0.0
2016-Dec-09 04:33N 40°42' W 074°09'0 0.0
2016-Dec-09 03:33N 40°42' W 074°09'0 0.0
2016-Dec-09 02:33N 40°42' W 074°09'0 0.0
2016-Dec-09 01:33N 40°42' W 074°09'0 0.0
2016-Dec-09 00:33N 40°42' W 074°09'0 0.0
2016-Dec-08 23:33N 40°42' W 074°09'0 0.0
2016-Dec-08 22:33N 40°42' W 074°09'0 0.0
2016-Dec-08 21:33N 40°42' W 074°09'0 0.0
2016-Dec-08 20:33N 40°42' W 074°09'0 0.0
2016-Dec-08 19:33N 40°42' W 074°09'0 0.0
2016-Dec-08 18:33N 40°42' W 074°09'0 0.0
2016-Dec-08 17:32N 40°42' W 074°09'2 2.4
2016-Dec-08 16:33N 40°40' W 074°08'0 0.0
2016-Dec-08 15:33N 40°40' W 074°08'0 0.0
2016-Dec-08 14:33N 40°40' W 074°08'1 1.2
2016-Dec-08 13:32N 40°39' W 074°08'3 3.6
2016-Dec-08 12:34N 40°41' W 074°04'2 2.4
2016-Dec-08 11:34N 40°39' W 074°06'3 3.0
2016-Dec-08 10:33N 40°41' W 074°08'0 0.4
2016-Dec-08 09:33N 40°41' W 074°08'0 0.0
2016-Dec-08 08:34N 40°41' W 074°08'0 0.0
2016-Dec-08 07:34N 40°41' W 074°08'0 0.0
2016-Dec-08 06:33N 40°41' W 074°08'0 0.0
2016-Dec-08 05:34N 40°41' W 074°08'0 0.0
2016-Dec-08 04:34N 40°41' W 074°08'0 0.0
2016-Dec-08 03:34N 40°41' W 074°08'1 0.8
2016-Dec-08 02:33N 40°42' W 074°09'2 2.5
2016-Dec-08 01:33N 40°39' W 074°09'7 5.2
2016-Dec-08 00:13N 40°33' W 074°13'2 2.7
2016-Dec-07 23:33N 40°32' W 074°15'0 0.3
2016-Dec-07 22:33N 40°33' W 074°15'0 0.0
2016-Dec-07 21:22N 40°33' W 074°15'0 0.1
2016-Dec-07 20:15N 40°33' W 074°15'0 0.2
2016-Dec-07 19:27N 40°33' W 074°15'0 0.0
2016-Dec-07 18:33N 40°33' W 074°15'0 0.1
2016-Dec-07 14:04N 40°32' W 074°15'1 0.1
2016-Dec-07 03:22N 40°33' W 074°14'5 6.0
2016-Dec-07 02:33N 40°38' W 074°12'4 4.0
2016-Dec-07 01:33N 40°41' W 074°09'1 1.2
2016-Dec-07 00:33N 40°42' W 074°09'0 0.1
2016-Dec-06 23:33N 40°42' W 074°09'0 0.0
2016-Dec-06 22:33N 40°42' W 074°09'0 0.0
2016-Dec-06 21:33N 40°42' W 074°09'0 0.0
2016-Dec-06 20:33N 40°42' W 074°09'0 0.0
2016-Dec-06 18:33N 40°42' W 074°09'0 0.0
2016-Dec-06 17:33N 40°42' W 074°09'0 0.0
2016-Dec-06 16:33N 40°42' W 074°09'0 0.0
2016-Dec-06 15:34N 40°42' W 074°09'0 0.0
2016-Dec-06 14:33N 40°42' W 074°09'0 0.0
2016-Dec-06 13:33N 40°42' W 074°09'0 0.0
2016-Dec-06 12:33N 40°42' W 074°09'0 0.0
2016-Dec-06 11:34N 40°42' W 074°09'0 0.0
2016-Dec-06 10:33N 40°42' W 074°09'0 0.0
2016-Dec-06 09:33N 40°42' W 074°09'0 0.0
2016-Dec-06 08:33N 40°42' W 074°09'0 0.0
2016-Dec-06 07:33N 40°42' W 074°09'0 0.0
2016-Dec-06 06:33N 40°42' W 074°09'0 0.0
2016-Dec-06 05:33N 40°42' W 074°09'0 0.0
2016-Dec-06 04:33N 40°42' W 074°09'0 0.0
2016-Dec-06 03:33N 40°42' W 074°09'0 0.0
2016-Dec-06 02:33N 40°42' W 074°09'0 0.0
2016-Dec-06 01:33N 40°42' W 074°09'0 0.0
2016-Dec-06 00:33N 40°42' W 074°09'3 2.9
2016-Dec-05 23:33N 40°39' W 074°09'4 3.9
2016-Dec-05 22:34N 40°41' W 074°04'0 0.2
2016-Dec-05 21:33N 40°41' W 074°05'0 0.0
2016-Dec-05 20:33N 40°41' W 074°05'0 0.0
2016-Dec-05 19:34N 40°41' W 074°05'0 0.1
2016-Dec-05 18:33N 40°41' W 074°04'0 0.1
2016-Dec-05 17:34N 40°41' W 074°05'0 0.3
2016-Dec-05 16:34N 40°41' W 074°04'2 1.8
2016-Dec-05 15:33N 40°42' W 074°02'6 6.0
2016-Dec-05 14:33N 40°47' W 073°60'6 6.3
2016-Dec-05 13:33N 40°53' W 073°56'2 0.1
2016-Dec-04 02:32N 40°55' W 073°55'7 7.5
2016-Dec-04 01:33N 40°48' W 073°59'6 6.2
2016-Dec-04 00:34N 40°42' W 074°02'2 2.3
2016-Dec-03 23:34N 40°41' W 074°05'0 0.0
2016-Dec-03 22:33N 40°41' W 074°05'4 4.3
2016-Dec-03 21:33N 40°39' W 074°09'3 2.9
2016-Dec-03 20:34N 40°41' W 074°08'0 0.0
2016-Dec-03 19:33N 40°41' W 074°08'3 3.1
2016-Dec-03 18:33N 40°39' W 074°07'0 0.1
2016-Dec-03 17:33N 40°39' W 074°07'1 1.1
2016-Dec-03 16:34N 40°39' W 074°06'2 2.4
2016-Dec-03 15:33N 40°41' W 074°04'0 0.0
2016-Dec-03 14:34N 40°41' W 074°04'0 0.0
2016-Dec-03 13:34N 40°41' W 074°04'0 0.1
2016-Dec-03 12:33N 40°41' W 074°05'0 0.0
2016-Dec-03 11:33N 40°41' W 074°05'0 0.0
2016-Dec-03 10:34N 40°41' W 074°05'0 0.0
2016-Dec-03 09:33N 40°41' W 074°05'0 0.0
2016-Dec-03 08:34N 40°41' W 074°05'0 0.0
2016-Dec-03 07:34N 40°41' W 074°05'0 0.0
2016-Dec-03 06:34N 40°41' W 074°05'0 0.0
2016-Dec-03 05:34N 40°41' W 074°05'0 0.0
2016-Dec-03 04:33N 40°41' W 074°05'0 0.0
2016-Dec-03 03:33N 40°41' W 074°05'0 0.0
2016-Dec-03 02:34N 40°41' W 074°05'0 0.0
2016-Dec-03 01:33N 40°41' W 074°05'2 1.8
2016-Dec-03 00:34N 40°39' W 074°04'3 3.4
2016-Dec-02 23:33N 40°41' W 074°08'1 1.2
2016-Dec-02 22:33N 40°42' W 074°09'0 0.0
2016-Dec-02 21:33N 40°42' W 074°09'0 0.0
2016-Dec-02 20:32N 40°42' W 074°09'0 0.0
2016-Dec-02 19:33N 40°42' W 074°09'1 0.9
2016-Dec-02 18:33N 40°41' W 074°08'2 2.4
2016-Dec-02 17:33N 40°39' W 074°09'4 4.2
2016-Dec-02 16:34N 40°40' W 074°04'1 1.0
2016-Dec-02 15:33N 40°41' W 074°04'0 0.0
2016-Dec-02 14:33N 40°41' W 074°04'0 0.1
2016-Dec-02 13:33N 40°41' W 074°05'0 0.0
2016-Dec-02 12:33N 40°41' W 074°05'0 0.0
2016-Dec-02 11:34N 40°41' W 074°05'0 0.0
2016-Dec-02 10:34N 40°41' W 074°05'0 0.0
2016-Dec-02 09:33N 40°41' W 074°05'0 0.0
2016-Dec-02 08:33N 40°41' W 074°05'0 0.0
2016-Dec-02 07:33N 40°41' W 074°05'0 0.0
2016-Dec-02 06:33N 40°41' W 074°05'0 0.0
2016-Dec-02 05:33N 40°41' W 074°05'0 0.0
2016-Dec-02 04:33N 40°41' W 074°05'0 0.1
2016-Dec-02 03:33N 40°41' W 074°04'0 0.0
2016-Dec-02 02:33N 40°41' W 074°04'0 0.0
2016-Dec-02 01:34N 40°41' W 074°04'0 0.0
2016-Dec-02 00:33N 40°41' W 074°04'0 0.0
2016-Dec-01 23:33N 40°41' W 074°04'4 3.8
2016-Dec-01 22:33N 40°39' W 074°08'3 2.9
2016-Dec-01 21:34N 40°41' W 074°08'0 0.0
2016-Dec-01 20:33N 40°41' W 074°08'0 0.0
2016-Dec-01 19:34N 40°41' W 074°08'1 1.3
2016-Dec-01 18:34N 40°42' W 074°07'0 0.1
2016-Dec-01 17:34N 40°42' W 074°07'0 0.0
2016-Dec-01 16:34N 40°42' W 074°07'0 0.0
2016-Dec-01 15:33N 40°42' W 074°07'0 0.0
2016-Dec-01 14:34N 40°42' W 074°07'0 0.0
2016-Dec-01 13:34N 40°42' W 074°07'0 0.0
2016-Dec-01 12:33N 40°42' W 074°07'1 0.9
2016-Dec-01 11:33N 40°42' W 074°07'1 0.6
2016-Dec-01 10:33N 40°42' W 074°08'0 0.0
2016-Dec-01 09:33N 40°42' W 074°08'0 0.0
2016-Dec-01 08:33N 40°42' W 074°08'0 0.0
2016-Dec-01 07:34N 40°41' W 074°08'0 0.0
2016-Dec-01 06:33N 40°42' W 074°08'  
Track history (hours):
 
Tides and Currents Weather Stations Pressure Air Temp Water Temp Dewpoint Dewpoint Depression Visibility Wind Speed Wind Dir Waves Ship Positions

Mary Alice

Owner: Donjon Marine Co., Inc., HILLSIDE, NJ. More information available from US FCC via Universal Licensing System and Coast Guard Vessel Documentation Center.

Last reported at 2016-Dec-11 05:33 UTC. Time now 2016-Dec-11 06:12 UTC.
Position N 40°42' W 074°09'.

Length 21 m; draft 4.8 m.

Type: Towing. MMSI: 366744020.

Date/timePositionNaut miles runAvg speedWind from/ knotsBaromVisibWave heightAir tempDewpointWater temp
2016-Dec-11 05:33N 40°42' W 074°09'0 0.0
2016-Dec-11 04:33N 40°42' W 074°09'0 0.0
2016-Dec-11 03:33N 40°42' W 074°09'0 0.0
2016-Dec-11 02:33N 40°42' W 074°09'0 0.0
2016-Dec-11 01:33N 40°42' W 074°09'0 0.0
2016-Dec-11 00:33N 40°42' W 074°09'1 0.9
2016-Dec-10 23:34N 40°41' W 074°08'0 0.0
2016-Dec-10 22:33N 40°41' W 074°08'0 0.0
2016-Dec-10 21:33N 40°41' W 074°08'0 0.0
2016-Dec-10 20:33N 40°41' W 074°08'0 0.0
2016-Dec-10 19:33N 40°41' W 074°08'0 0.0
2016-Dec-10 18:33N 40°41' W 074°08'0 0.0
2016-Dec-10 17:33N 40°41' W 074°08'0 0.0
2016-Dec-10 16:33N 40°41' W 074°08'0 0.0
2016-Dec-10 15:34N 40°41' W 074°08'0 0.0
2016-Dec-10 14:34N 40°41' W 074°08'1 0.8
2016-Dec-10 13:33N 40°42' W 074°09'0 0.0
2016-Dec-10 12:30N 40°42' W 074°09'0 0.0
2016-Dec-10 11:23N 40°42' W 074°09'0 0.0
2016-Dec-10 10:25N 40°42' W 074°09'0 0.0
2016-Dec-10 07:32N 40°42' W 074°09'0 0.0
2016-Dec-10 05:28N 40°42' W 074°09'0 0.0
2016-Dec-10 04:33N 40°42' W 074°09'0 0.0
2016-Dec-10 03:17N 40°42' W 074°09'1 1.4
2016-Dec-10 02:34N 40°41' W 074°08'3 2.6
2016-Dec-10 01:33N 40°39' W 074°07'3 3.1
2016-Dec-10 00:33N 40°41' W 074°05'3 3.1
2016-Dec-09 23:32N 40°39' W 074°07'3 2.6
2016-Dec-09 22:33N 40°41' W 074°08'0 0.5
2016-Dec-09 21:33N 40°41' W 074°08'0 0.4
2016-Dec-09 20:33N 40°41' W 074°08'0 0.3
2016-Dec-09 19:33N 40°41' W 074°09'0 0.0
2016-Dec-09 18:33N 40°41' W 074°09'0 0.0
2016-Dec-09 17:34N 40°41' W 074°09'0 0.0
2016-Dec-09 16:33N 40°41' W 074°09'1 0.8
2016-Dec-09 15:33N 40°42' W 074°08'0 0.1
2016-Dec-09 14:33N 40°41' W 074°08'0 0.0
2016-Dec-09 13:33N 40°41' W 074°08'0 0.0
2016-Dec-09 12:34N 40°41' W 074°08'0 0.0
2016-Dec-09 11:33N 40°41' W 074°08'0 0.0
2016-Dec-09 10:34N 40°41' W 074°08'1 0.9
2016-Dec-09 09:33N 40°42' W 074°09'0 0.0
2016-Dec-09 08:33N 40°42' W 074°09'0 0.0
2016-Dec-09 07:33N 40°42' W 074°09'0 0.0
2016-Dec-09 06:34N 40°42' W 074°09'0 0.0
2016-Dec-09 05:34N 40°42' W 074°09'0 0.0
2016-Dec-09 04:33N 40°42' W 074°09'0 0.0
2016-Dec-09 03:33N 40°42' W 074°09'0 0.0
2016-Dec-09 02:33N 40°42' W 074°09'0 0.0
2016-Dec-09 01:33N 40°42' W 074°09'0 0.0
2016-Dec-09 00:33N 40°42' W 074°09'0 0.0
2016-Dec-08 23:33N 40°42' W 074°09'0 0.0
2016-Dec-08 22:33N 40°42' W 074°09'0 0.0
2016-Dec-08 21:33N 40°42' W 074°09'0 0.0
2016-Dec-08 20:33N 40°42' W 074°09'0 0.0
2016-Dec-08 19:33N 40°42' W 074°09'0 0.0
2016-Dec-08 18:33N 40°42' W 074°09'0 0.0
2016-Dec-08 17:32N 40°42' W 074°09'2 2.4
2016-Dec-08 16:33N 40°40' W 074°08'0 0.0
2016-Dec-08 15:33N 40°40' W 074°08'0 0.0
2016-Dec-08 14:33N 40°40' W 074°08'1 1.2
2016-Dec-08 13:32N 40°39' W 074°08'3 3.6
2016-Dec-08 12:34N 40°41' W 074°04'2 2.4
2016-Dec-08 11:34N 40°39' W 074°06'3 3.0
2016-Dec-08 10:33N 40°41' W 074°08'0 0.4
2016-Dec-08 09:33N 40°41' W 074°08'0 0.0
2016-Dec-08 08:34N 40°41' W 074°08'0 0.0
2016-Dec-08 07:34N 40°41' W 074°08'0 0.0
2016-Dec-08 06:33N 40°41' W 074°08'0 0.0
2016-Dec-08 05:34N 40°41' W 074°08'0 0.0
2016-Dec-08 04:34N 40°41' W 074°08'0 0.0
2016-Dec-08 03:34N 40°41' W 074°08'1 0.8
2016-Dec-08 02:33N 40°42' W 074°09'2 2.5
2016-Dec-08 01:33N 40°39' W 074°09'7 5.2
2016-Dec-08 00:13N 40°33' W 074°13'2 2.7
2016-Dec-07 23:33N 40°32' W 074°15'0 0.3
2016-Dec-07 22:33N 40°33' W 074°15'0 0.0
2016-Dec-07 21:22N 40°33' W 074°15'0 0.1
2016-Dec-07 20:15N 40°33' W 074°15'0 0.2
2016-Dec-07 19:27N 40°33' W 074°15'0 0.0
2016-Dec-07 18:33N 40°33' W 074°15'0 0.1
2016-Dec-07 14:04N 40°32' W 074°15'1 0.1
2016-Dec-07 03:22N 40°33' W 074°14'5 6.0
2016-Dec-07 02:33N 40°38' W 074°12'4 4.0
2016-Dec-07 01:33N 40°41' W 074°09'1 1.2
2016-Dec-07 00:33N 40°42' W 074°09'0 0.1
2016-Dec-06 23:33N 40°42' W 074°09'0 0.0
2016-Dec-06 22:33N 40°42' W 074°09'0 0.0
2016-Dec-06 21:33N 40°42' W 074°09'0 0.0
2016-Dec-06 20:33N 40°42' W 074°09'0 0.0
2016-Dec-06 18:33N 40°42' W 074°09'0 0.0
2016-Dec-06 17:33N 40°42' W 074°09'0 0.0
2016-Dec-06 16:33N 40°42' W 074°09'0 0.0
2016-Dec-06 15:34N 40°42' W 074°09'0 0.0
2016-Dec-06 14:33N 40°42' W 074°09'0 0.0
2016-Dec-06 13:33N 40°42' W 074°09'0 0.0
2016-Dec-06 12:33N 40°42' W 074°09'0 0.0
2016-Dec-06 11:34N 40°42' W 074°09'0 0.0
2016-Dec-06 10:33N 40°42' W 074°09'0 0.0
2016-Dec-06 09:33N 40°42' W 074°09'0 0.0
2016-Dec-06 08:33N 40°42' W 074°09'0 0.0
2016-Dec-06 07:33N 40°42' W 074°09'0 0.0
2016-Dec-06 06:33N 40°42' W 074°09'0 0.0
2016-Dec-06 05:33N 40°42' W 074°09'0 0.0
2016-Dec-06 04:33N 40°42' W 074°09'0 0.0
2016-Dec-06 03:33N 40°42' W 074°09'0 0.0
2016-Dec-06 02:33N 40°42' W 074°09'0 0.0
2016-Dec-06 01:33N 40°42' W 074°09'0 0.0
2016-Dec-06 00:33N 40°42' W 074°09'3 2.9
2016-Dec-05 23:33N 40°39' W 074°09'4 3.9
2016-Dec-05 22:34N 40°41' W 074°04'0 0.2
2016-Dec-05 21:33N 40°41' W 074°05'0 0.0
2016-Dec-05 20:33N 40°41' W 074°05'0 0.0
2016-Dec-05 19:34N 40°41' W 074°05'0 0.1
2016-Dec-05 18:33N 40°41' W 074°04'0 0.1
2016-Dec-05 17:34N 40°41' W 074°05'0 0.3
2016-Dec-05 16:34N 40°41' W 074°04'2 1.8
2016-Dec-05 15:33N 40°42' W 074°02'6 6.0
2016-Dec-05 14:33N 40°47' W 073°60'6 6.3
2016-Dec-05 13:33N 40°53' W 073°56'2 0.1
2016-Dec-04 02:32N 40°55' W 073°55'7 7.5
2016-Dec-04 01:33N 40°48' W 073°59'6 6.2
2016-Dec-04 00:34N 40°42' W 074°02'2 2.3
2016-Dec-03 23:34N 40°41' W 074°05'0 0.0
2016-Dec-03 22:33N 40°41' W 074°05'4 4.3
2016-Dec-03 21:33N 40°39' W 074°09'3 2.9
2016-Dec-03 20:34N 40°41' W 074°08'0 0.0
2016-Dec-03 19:33N 40°41' W 074°08'3 3.1
2016-Dec-03 18:33N 40°39' W 074°07'0 0.1
2016-Dec-03 17:33N 40°39' W 074°07'1 1.1
2016-Dec-03 16:34N 40°39' W 074°06'2 2.4
2016-Dec-03 15:33N 40°41' W 074°04'0 0.0
2016-Dec-03 14:34N 40°41' W 074°04'0 0.0
2016-Dec-03 13:34N 40°41' W 074°04'0 0.1
2016-Dec-03 12:33N 40°41' W 074°05'0 0.0
2016-Dec-03 11:33N 40°41' W 074°05'0 0.0
2016-Dec-03 10:34N 40°41' W 074°05'0 0.0
2016-Dec-03 09:33N 40°41' W 074°05'0 0.0
2016-Dec-03 08:34N 40°41' W 074°05'0 0.0
2016-Dec-03 07:34N 40°41' W 074°05'0 0.0
2016-Dec-03 06:34N 40°41' W 074°05'0 0.0
2016-Dec-03 05:34N 40°41' W 074°05'0 0.0
2016-Dec-03 04:33N 40°41' W 074°05'0 0.0
2016-Dec-03 03:33N 40°41' W 074°05'0 0.0
2016-Dec-03 02:34N 40°41' W 074°05'0 0.0
2016-Dec-03 01:33N 40°41' W 074°05'2 1.8
2016-Dec-03 00:34N 40°39' W 074°04'3 3.4
2016-Dec-02 23:33N 40°41' W 074°08'1 1.2
2016-Dec-02 22:33N 40°42' W 074°09'0 0.0
2016-Dec-02 21:33N 40°42' W 074°09'0 0.0
2016-Dec-02 20:32N 40°42' W 074°09'0 0.0
2016-Dec-02 19:33N 40°42' W 074°09'1 0.9
2016-Dec-02 18:33N 40°41' W 074°08'2 2.4
2016-Dec-02 17:33N 40°39' W 074°09'4 4.2
2016-Dec-02 16:34N 40°40' W 074°04'1 1.0
2016-Dec-02 15:33N 40°41' W 074°04'0 0.0
2016-Dec-02 14:33N 40°41' W 074°04'0 0.1
2016-Dec-02 13:33N 40°41' W 074°05'0 0.0
2016-Dec-02 12:33N 40°41' W 074°05'0 0.0
2016-Dec-02 11:34N 40°41' W 074°05'0 0.0
2016-Dec-02 10:34N 40°41' W 074°05'0 0.0
2016-Dec-02 09:33N 40°41' W 074°05'0 0.0
2016-Dec-02 08:33N 40°41' W 074°05'0 0.0
2016-Dec-02 07:33N 40°41' W 074°05'0 0.0
2016-Dec-02 06:33N 40°41' W 074°05'0 0.0
2016-Dec-02 05:33N 40°41' W 074°05'0 0.0
2016-Dec-02 04:33N 40°41' W 074°05'0 0.1
2016-Dec-02 03:33N 40°41' W 074°04'0 0.0
2016-Dec-02 02:33N 40°41' W 074°04'0 0.0
2016-Dec-02 01:34N 40°41' W 074°04'0 0.0
2016-Dec-02 00:33N 40°41' W 074°04'0 0.0
2016-Dec-01 23:33N 40°41' W 074°04'4 3.8
2016-Dec-01 22:33N 40°39' W 074°08'3 2.9
2016-Dec-01 21:34N 40°41' W 074°08'0 0.0
2016-Dec-01 20:33N 40°41' W 074°08'0 0.0
2016-Dec-01 19:34N 40°41' W 074°08'1 1.3
2016-Dec-01 18:34N 40°42' W 074°07'0 0.1
2016-Dec-01 17:34N 40°42' W 074°07'0 0.0
2016-Dec-01 16:34N 40°42' W 074°07'0 0.0
2016-Dec-01 15:33N 40°42' W 074°07'0 0.0
2016-Dec-01 14:34N 40°42' W 074°07'0 0.0
2016-Dec-01 13:34N 40°42' W 074°07'0 0.0
2016-Dec-01 12:33N 40°42' W 074°07'1 0.9
2016-Dec-01 11:33N 40°42' W 074°07'1 0.6
2016-Dec-01 10:33N 40°42' W 074°08'0 0.0
2016-Dec-01 09:33N 40°42' W 074°08'0 0.0
2016-Dec-01 08:33N 40°42' W 074°08'0 0.0
2016-Dec-01 07:34N 40°41' W 074°08'0 0.0
2016-Dec-01 06:33N 40°42' W 074°08'  

Dump ship's entire track history